createdAt,value
2023-01-10T00:01:57.124Z,7.90
2023-01-10T00:04:26.461Z,7.80
2023-01-10T00:06:55.602Z,7.80
2023-01-10T00:09:22.557Z,7.80
2023-01-10T00:12:07.930Z,7.80
2023-01-10T00:14:37.299Z,7.80
2023-01-10T00:17:04.589Z,7.80
2023-01-10T00:19:31.791Z,7.80
2023-01-10T00:22:02.726Z,7.80
2023-01-10T00:24:29.555Z,7.80
2023-01-10T00:26:56.510Z,7.90
2023-01-10T00:29:35.301Z,7.90
2023-01-10T00:32:02.385Z,7.80
2023-01-10T00:34:32.619Z,7.90
2023-01-10T00:36:59.502Z,7.80
2023-01-10T00:39:27.612Z,7.90
2023-01-10T00:42:13.462Z,7.90
2023-01-10T00:44:40.332Z,7.90
2023-01-10T00:47:09.727Z,7.90
2023-01-10T00:49:36.535Z,7.90
2023-01-10T00:52:03.494Z,7.90
2023-01-10T00:54:30.638Z,7.90
2023-01-10T00:57:01.657Z,7.90
2023-01-10T00:59:30.997Z,7.80
2023-01-10T01:01:57.909Z,7.90
2023-01-10T01:04:26.897Z,7.90
2023-01-10T01:06:55.815Z,7.90
2023-01-10T01:09:22.653Z,7.80
2023-01-10T01:11:49.565Z,7.80
2023-01-10T01:14:18.900Z,7.80
2023-01-10T01:16:46.064Z,7.80
2023-01-10T01:19:12.935Z,7.80
2023-01-10T01:21:42.142Z,7.80
2023-01-10T01:24:14.271Z,7.80
2023-01-10T01:26:43.560Z,7.80
2023-01-10T01:29:10.524Z,7.70
2023-01-10T01:31:37.457Z,7.70
2023-01-10T01:34:04.475Z,7.70
2023-01-10T01:36:31.360Z,7.70
2023-01-10T01:38:58.194Z,7.70
2023-01-10T01:41:43.558Z,7.60
2023-01-10T01:47:07.673Z,7.60
2023-01-10T01:49:40.547Z,7.60
2023-01-10T01:52:17.472Z,7.60
2023-01-10T01:54:44.596Z,7.60
2023-01-10T01:57:15.131Z,7.60
2023-01-10T01:59:48.126Z,7.60
2023-01-10T02:02:20.068Z,7.60
2023-01-10T02:05:02.453Z,7.50
2023-01-10T02:07:37.456Z,7.50
2023-01-10T02:10:07.164Z,7.50
2023-01-10T02:12:34.530Z,7.60
2023-01-10T02:15:02.995Z,7.50
2023-01-10T02:17:29.870Z,7.50
2023-01-10T02:19:59.866Z,7.50
2023-01-10T02:22:35.389Z,7.50
2023-01-10T02:25:29.464Z,7.60
2023-01-10T02:28:34.357Z,7.60
2023-01-10T02:31:24.474Z,7.60
2023-01-10T02:34:24.942Z,7.60
2023-01-10T02:37:18.144Z,7.60
2023-01-10T02:40:06.418Z,7.60
2023-01-10T02:42:42.699Z,7.60
2023-01-10T02:45:21.779Z,7.60
2023-01-10T02:47:51.048Z,7.60
2023-01-10T02:50:29.328Z,7.60
2023-01-10T02:53:05.857Z,7.60
2023-01-10T02:56:17.489Z,7.60
2023-01-10T02:59:03.945Z,7.60
2023-01-10T03:01:34.660Z,7.60
2023-01-10T03:04:20.439Z,7.60
2023-01-10T03:06:52.277Z,7.60
2023-01-10T03:09:47.818Z,7.60
2023-01-10T03:12:43.994Z,7.60
2023-01-10T03:15:13.871Z,7.60
2023-01-10T03:17:43.432Z,7.60
2023-01-10T03:20:13.285Z,7.60
2023-01-10T03:22:42.139Z,7.60
2023-01-10T03:25:14.745Z,7.60
2023-01-10T03:28:00.637Z,7.70
2023-01-10T03:30:33.162Z,7.70
2023-01-10T03:33:00.505Z,7.70
2023-01-10T03:36:16.680Z,7.70
2023-01-10T03:38:57.077Z,7.70
2023-01-10T03:41:32.289Z,7.60
2023-01-10T03:44:42.242Z,7.70
2023-01-10T03:47:39.248Z,7.70
2023-01-10T03:50:24.687Z,7.70
2023-01-10T03:52:51.710Z,7.70
2023-01-10T03:55:24.073Z,7.70
2023-01-10T03:57:51.095Z,7.70
2023-01-10T04:00:18.617Z,7.60
2023-01-10T04:02:47.552Z,7.60
2023-01-10T04:05:14.490Z,7.60
2023-01-10T04:07:41.427Z,7.60
2023-01-10T04:10:09.750Z,7.50
2023-01-10T04:12:36.716Z,7.50
2023-01-10T04:15:04.118Z,7.50
2023-01-10T04:17:30.983Z,7.50
2023-01-10T04:19:57.849Z,7.50
2023-01-10T04:22:24.732Z,7.40
2023-01-10T04:24:54.482Z,7.50
2023-01-10T04:27:21.371Z,7.40
2023-01-10T04:29:48.263Z,7.40
2023-01-10T04:32:15.211Z,7.40
2023-01-10T04:34:42.143Z,7.40
2023-01-10T04:37:08.995Z,7.40
2023-01-10T04:39:35.883Z,7.40
2023-01-10T04:42:05.396Z,7.40
2023-01-10T04:44:32.287Z,7.40
2023-01-10T04:47:02.206Z,7.40
2023-01-10T04:49:29.146Z,7.40
2023-01-10T04:51:56.028Z,7.40
2023-01-10T04:54:23.413Z,7.40
2023-01-10T04:56:50.695Z,7.40
2023-01-10T04:59:20.109Z,7.40
2023-01-10T05:01:49.257Z,7.40
2023-01-10T05:04:16.169Z,7.40
2023-01-10T05:06:43.028Z,7.40
2023-01-10T05:09:12.197Z,7.40
2023-01-10T05:11:39.049Z,7.40
2023-01-10T05:14:06.080Z,7.40
2023-01-10T05:16:33.081Z,7.40
2023-01-10T05:19:02.374Z,7.40
2023-01-10T05:21:29.313Z,7.40
2023-01-10T05:23:58.470Z,7.50
2023-01-10T05:26:25.409Z,7.50
2023-01-10T05:28:54.473Z,7.50
2023-01-10T05:31:23.826Z,7.40
2023-01-10T05:33:52.006Z,7.40
2023-01-10T05:36:21.436Z,7.40
2023-01-10T05:38:48.338Z,7.50
2023-01-10T05:41:15.227Z,7.50
2023-01-10T05:43:42.235Z,7.50
2023-01-10T05:46:11.383Z,7.50
2023-01-10T05:48:38.324Z,7.50
2023-01-10T05:51:07.888Z,7.50
2023-01-10T05:53:37.216Z,7.50
2023-01-10T05:56:05.506Z,7.50
2023-01-10T05:58:32.378Z,7.50
2023-01-10T06:00:59.336Z,7.50
2023-01-10T06:03:26.974Z,7.50
2023-01-10T06:05:57.305Z,7.50
2023-01-10T06:08:24.786Z,7.50
2023-01-10T06:10:51.836Z,7.50
2023-01-10T06:13:20.889Z,7.50
2023-01-10T06:15:48.070Z,7.50
2023-01-10T06:18:17.712Z,7.50
2023-01-10T06:20:47.406Z,7.50
2023-01-10T06:23:14.393Z,7.50
2023-01-10T06:25:41.725Z,7.50
2023-01-10T06:28:09.950Z,7.50
2023-01-10T06:30:37.467Z,7.50
2023-01-10T06:37:33.016Z,7.50
2023-01-10T06:40:02.594Z,7.40
2023-01-10T06:42:31.658Z,7.40
2023-01-10T06:44:58.519Z,7.40
2023-01-10T06:47:25.442Z,7.40
2023-01-10T06:49:54.552Z,7.50
2023-01-10T06:52:21.435Z,7.50
2023-01-10T06:54:49.151Z,7.50
2023-01-10T06:57:18.997Z,7.50
2023-01-10T06:59:45.853Z,7.50
2023-01-10T07:02:12.913Z,7.50
2023-01-10T07:04:42.339Z,7.50
2023-01-10T07:07:09.152Z,7.50
2023-01-10T07:09:36.033Z,7.50
2023-01-10T07:12:08.109Z,7.50
2023-01-10T07:14:35.133Z,7.50
2023-01-10T07:17:01.961Z,7.40
2023-01-10T07:19:28.824Z,7.40
2023-01-10T07:21:55.774Z,7.40
2023-01-10T07:24:22.719Z,7.40
2023-01-10T07:26:49.563Z,7.40
2023-01-10T07:29:18.579Z,7.40
2023-01-10T07:31:45.537Z,7.40
2023-01-10T07:34:12.571Z,7.30
2023-01-10T07:36:39.630Z,7.30
2023-01-10T07:39:09.040Z,7.30
2023-01-10T07:41:36.055Z,7.30
2023-01-10T07:44:03.359Z,7.30
2023-01-10T07:46:32.422Z,7.30
2023-01-10T07:48:59.570Z,7.30
2023-01-10T07:51:26.437Z,7.20
2023-01-10T07:53:53.325Z,7.30
2023-01-10T07:56:20.149Z,7.30
2023-01-10T07:58:47.099Z,7.30
2023-01-10T08:01:14.092Z,7.30
2023-01-10T08:03:41.212Z,7.30
2023-01-10T08:06:12.524Z,7.40
2023-01-10T08:08:39.984Z,7.40
2023-01-10T08:11:07.194Z,7.40
2023-01-10T08:13:34.364Z,7.40
2023-01-10T08:16:06.059Z,7.50
2023-01-10T08:18:33.517Z,7.50
2023-01-10T08:21:00.983Z,7.50
2023-01-10T08:23:32.372Z,7.50
2023-01-10T08:26:02.018Z,7.50
2023-01-10T08:28:29.479Z,7.50
2023-01-10T08:30:58.732Z,7.50
2023-01-10T08:33:27.362Z,7.50
2023-01-10T08:39:42.508Z,7.50
2023-01-10T08:42:09.787Z,7.60
2023-01-10T08:44:36.875Z,7.60
2023-01-10T08:47:03.897Z,7.60
2023-01-10T08:49:33.411Z,7.50
2023-01-10T08:52:02.433Z,7.60
2023-01-10T08:54:29.408Z,7.60
2023-01-10T08:56:56.287Z,7.60
2023-01-10T08:59:23.124Z,7.60
2023-01-10T09:01:50.290Z,7.60
2023-01-10T09:04:17.223Z,7.60
2023-01-10T09:06:44.274Z,7.70
2023-01-10T09:09:11.139Z,7.80
2023-01-10T09:11:38.322Z,7.80
2023-01-10T09:14:07.347Z,7.70
2023-01-10T09:16:34.476Z,7.80
2023-01-10T09:19:01.381Z,7.80
2023-01-10T09:21:30.832Z,7.90
2023-01-10T09:24:00.500Z,8.00
2023-01-10T09:26:27.442Z,8.00
2023-01-10T09:28:54.281Z,8.10
2023-01-10T09:31:21.312Z,8.20
2023-01-10T09:33:49.774Z,8.20
2023-01-10T09:36:16.677Z,8.10
2023-01-10T09:38:46.157Z,8.10
2023-01-10T09:41:43.745Z,8.10
2023-01-10T09:44:39.638Z,8.00
2023-01-10T09:47:36.104Z,8.00
2023-01-10T09:50:06.442Z,8.00
2023-01-10T09:52:37.873Z,8.10
2023-01-10T09:55:25.597Z,8.10
2023-01-10T09:57:57.566Z,8.10
2023-01-10T10:00:53.673Z,8.10
2023-01-10T10:03:35.832Z,8.10
2023-01-10T10:06:12.040Z,8.10
2023-01-10T10:08:45.542Z,8.10
2023-01-10T10:11:27.682Z,8.10
2023-01-10T10:14:31.925Z,8.20
2023-01-10T10:17:31.253Z,8.30
2023-01-10T10:20:16.893Z,8.40
2023-01-10T10:23:02.495Z,8.50
2023-01-10T10:25:51.284Z,8.60
2023-01-10T10:28:31.888Z,8.60
2023-01-10T10:31:37.398Z,8.60
2023-01-10T10:34:12.606Z,8.60
2023-01-10T10:36:53.996Z,8.60
2023-01-10T10:39:43.563Z,8.60
2023-01-10T10:42:19.213Z,8.80
2023-01-10T10:44:59.736Z,8.80
2023-01-10T10:47:32.446Z,8.90
2023-01-10T10:50:40.434Z,8.90
2023-01-10T10:53:09.819Z,8.80
2023-01-10T10:55:38.658Z,8.80
2023-01-10T10:58:07.169Z,8.80
2023-01-10T11:00:37.107Z,8.80
2023-01-10T11:03:35.740Z,8.80
2023-01-10T11:06:06.858Z,8.80
2023-01-10T11:08:35.907Z,8.70
2023-01-10T11:11:15.148Z,8.80
2023-01-10T11:13:50.960Z,8.90
2023-01-10T11:16:33.598Z,8.90
2023-01-10T11:19:22.798Z,9.00
2023-01-10T11:21:54.258Z,9.00
2023-01-10T11:24:29.326Z,9.00
2023-01-10T11:26:59.669Z,9.00
2023-01-10T11:29:40.378Z,9.00
2023-01-10T11:32:15.456Z,9.00
2023-01-10T11:34:59.307Z,9.00
2023-01-10T11:37:31.510Z,9.00
2023-01-10T11:40:28.638Z,8.90
2023-01-10T11:42:59.169Z,8.90
2023-01-10T11:45:32.715Z,8.90
2023-01-10T11:48:09.826Z,9.00
2023-01-10T11:50:43.115Z,9.00
2023-01-10T11:53:29.413Z,9.00
2023-01-10T11:55:56.335Z,9.10
2023-01-10T11:58:29.465Z,9.10
2023-01-10T12:00:59.269Z,9.10
2023-01-10T12:03:29.038Z,9.10
2023-01-10T12:06:03.185Z,9.10
2023-01-10T12:08:42.498Z,9.10
2023-01-10T12:11:18.279Z,9.10
2023-01-10T12:13:51.640Z,9.10
2023-01-10T12:16:25.668Z,9.10
2023-01-10T12:18:55.353Z,9.10
2023-01-10T12:21:30.464Z,9.00
2023-01-10T12:24:01.271Z,9.00
2023-01-10T12:26:32.772Z,8.90
2023-01-10T12:29:08.572Z,8.80
2023-01-10T12:31:39.559Z,8.80
2023-01-10T12:34:14.600Z,8.80
2023-01-10T12:37:08.706Z,8.80
2023-01-10T12:39:46.894Z,8.80
2023-01-10T12:42:44.137Z,8.80
2023-01-10T12:45:41.044Z,8.90
2023-01-10T12:48:30.307Z,8.90
2023-01-10T12:51:04.859Z,9.00
2023-01-10T12:53:36.631Z,9.00
2023-01-10T12:56:07.758Z,9.00
2023-01-10T12:58:58.011Z,9.10
2023-01-10T13:01:35.395Z,9.10
2023-01-10T13:04:17.477Z,9.10
2023-01-10T13:06:45.311Z,9.10
2023-01-10T13:09:22.083Z,9.10
2023-01-10T13:12:18.219Z,9.10
2023-01-10T13:14:57.643Z,9.10
2023-01-10T13:17:33.882Z,9.00
2023-01-10T13:20:19.213Z,9.00
2023-01-10T13:23:21.023Z,9.00
2023-01-10T13:25:59.675Z,9.00
2023-01-10T13:28:29.255Z,8.90
2023-01-10T13:31:26.398Z,8.90
2023-01-10T13:34:00.693Z,8.80
2023-01-10T13:36:34.783Z,8.80
2023-01-10T13:39:05.131Z,8.80
2023-01-10T13:42:32.963Z,8.80
2023-01-10T13:45:03.401Z,8.80
2023-01-10T13:47:39.436Z,8.80
2023-01-10T13:50:24.420Z,8.70
2023-01-10T13:52:54.071Z,8.70
2023-01-10T13:55:22.821Z,8.80
2023-01-10T13:58:21.091Z,8.80
2023-01-10T14:01:09.231Z,8.80
2023-01-10T14:03:45.171Z,8.80
2023-01-10T14:06:41.794Z,8.90
2023-01-10T14:09:14.771Z,8.90
2023-01-10T14:11:45.280Z,8.90
2023-01-10T14:14:39.570Z,8.80
2023-01-10T14:17:36.996Z,8.80
2023-01-10T14:20:17.647Z,8.80
2023-01-10T14:23:09.993Z,8.70
2023-01-10T14:25:38.313Z,8.60
2023-01-10T14:28:15.158Z,8.50
2023-01-10T14:30:42.119Z,8.50
2023-01-10T14:33:22.819Z,8.50
2023-01-10T14:35:59.162Z,8.50
2023-01-10T14:38:35.637Z,8.50
2023-01-10T14:41:11.558Z,8.40
2023-01-10T14:44:11.107Z,8.40
2023-01-10T14:46:48.599Z,8.40
2023-01-10T14:49:28.895Z,8.40
2023-01-10T14:52:11.663Z,8.40
2023-01-10T14:54:38.583Z,8.40
2023-01-10T14:57:20.115Z,8.40
2023-01-10T14:59:48.398Z,8.40
2023-01-10T15:02:28.228Z,8.40
2023-01-10T15:05:02.256Z,8.30
2023-01-10T15:07:29.148Z,8.30
2023-01-10T15:10:02.408Z,8.30
2023-01-10T15:12:30.525Z,8.30
2023-01-10T15:15:10.064Z,8.30
2023-01-10T15:17:43.146Z,8.30
2023-01-10T15:20:18.520Z,8.20
2023-01-10T15:23:00.858Z,8.20
2023-01-10T15:25:38.154Z,8.20
2023-01-10T15:28:17.278Z,8.20
2023-01-10T15:30:44.761Z,8.20
2023-01-10T15:33:24.940Z,8.20
2023-01-10T15:35:51.926Z,8.20
2023-01-10T15:38:23.965Z,8.20
2023-01-10T15:41:02.576Z,8.20
2023-01-10T15:43:31.222Z,8.20
2023-01-10T15:46:02.522Z,8.20
2023-01-10T15:48:38.950Z,8.20
2023-01-10T15:51:16.406Z,8.20
2023-01-10T15:54:04.760Z,8.20
2023-01-10T15:56:38.872Z,8.20
2023-01-10T15:59:24.819Z,8.20
2023-01-10T16:02:38.487Z,8.20
2023-01-10T16:05:14.799Z,8.20
2023-01-10T16:07:46.713Z,8.20
2023-01-10T16:10:22.028Z,8.20
2023-01-10T16:13:07.904Z,8.20
2023-01-10T16:15:40.591Z,8.20
2023-01-10T16:18:07.642Z,8.20
2023-01-10T16:20:41.324Z,8.20
2023-01-10T16:23:17.286Z,8.20
2023-01-10T16:25:47.255Z,8.20
2023-01-10T16:28:16.068Z,8.20
2023-01-10T16:30:49.300Z,8.20
2023-01-10T16:33:24.120Z,8.20
2023-01-10T16:35:57.791Z,8.20
2023-01-10T16:38:26.571Z,8.20
2023-01-10T16:41:21.646Z,8.20
2023-01-10T16:43:51.784Z,8.10
2023-01-10T16:46:18.754Z,8.20
2023-01-10T16:48:47.612Z,8.10
2023-01-10T16:51:21.911Z,8.10
2023-01-10T16:53:49.089Z,8.10
2023-01-10T16:56:19.526Z,8.10
2023-01-10T16:58:49.858Z,8.10
2023-01-10T17:01:20.035Z,8.10
2023-01-10T17:03:47.662Z,8.00
2023-01-10T17:06:15.460Z,8.00
2023-01-10T17:08:46.070Z,8.00
2023-01-10T17:15:26.078Z,7.90
2023-01-10T17:17:52.948Z,7.80
2023-01-10T17:20:22.427Z,7.80
2023-01-10T17:22:49.287Z,7.80
2023-01-10T17:25:17.526Z,7.70
2023-01-10T17:27:47.030Z,7.70
2023-01-10T17:30:16.437Z,7.70
2023-01-10T17:32:43.256Z,7.60
2023-01-10T17:35:12.458Z,7.60
2023-01-10T17:37:42.627Z,7.60
2023-01-10T17:40:10.347Z,7.60
2023-01-10T17:42:37.239Z,7.60
2023-01-10T17:45:04.363Z,7.60
2023-01-10T17:47:31.317Z,7.50
2023-01-10T17:50:00.678Z,7.50
2023-01-10T17:52:27.838Z,7.60
2023-01-10T17:54:54.753Z,7.60
2023-01-10T17:57:25.194Z,7.60
2023-01-10T17:59:55.108Z,7.60
2023-01-10T18:02:22.136Z,7.60
2023-01-10T18:04:49.118Z,7.60
2023-01-10T18:07:18.188Z,7.50
2023-01-10T18:09:45.016Z,7.50
2023-01-10T18:12:11.982Z,7.50
2023-01-10T18:14:39.153Z,7.50
2023-01-10T18:17:08.808Z,7.50
2023-01-10T18:19:41.296Z,7.50
2023-01-10T18:22:26.665Z,7.50
2023-01-10T18:24:54.990Z,7.50
2023-01-10T18:27:25.360Z,7.50
2023-01-10T18:29:55.485Z,7.50
2023-01-10T18:32:23.269Z,7.40
2023-01-10T18:34:50.744Z,7.40
2023-01-10T18:37:18.995Z,7.40
2023-01-10T18:39:49.455Z,7.40
2023-01-10T18:42:18.589Z,7.30
2023-01-10T18:44:45.487Z,7.30
2023-01-10T18:47:12.352Z,7.30
2023-01-10T18:49:41.541Z,7.30
2023-01-10T18:52:08.424Z,7.20
2023-01-10T18:54:35.252Z,7.20
2023-01-10T18:57:02.272Z,7.20
2023-01-10T18:59:29.216Z,7.20
2023-01-10T19:01:59.070Z,7.20
2023-01-10T19:04:25.961Z,7.20
2023-01-10T19:06:56.840Z,7.10
2023-01-10T19:09:24.319Z,7.10
2023-01-10T19:11:53.651Z,7.10
2023-01-10T19:14:23.082Z,7.10
2023-01-10T19:16:49.956Z,7.00
2023-01-10T19:19:17.057Z,7.00
2023-01-10T19:21:45.147Z,7.00
2023-01-10T19:24:24.430Z,7.00
2023-01-10T19:26:54.896Z,6.90
2023-01-10T19:29:22.339Z,6.90
2023-01-10T19:31:50.162Z,6.90
2023-01-10T19:34:17.575Z,6.90
2023-01-10T19:36:45.539Z,6.90
2023-01-10T19:39:12.675Z,6.90
2023-01-10T19:41:39.969Z,6.90
2023-01-10T19:44:11.304Z,6.90
2023-01-10T19:46:40.730Z,6.90
2023-01-10T19:49:17.141Z,6.90
2023-01-10T19:51:47.963Z,6.80
2023-01-10T19:54:15.241Z,6.80
2023-01-10T19:56:42.503Z,6.80
2023-01-10T19:59:13.822Z,6.80
2023-01-10T20:01:43.772Z,6.80
2023-01-10T20:04:10.908Z,6.80
2023-01-10T20:06:42.033Z,6.70
2023-01-10T20:09:12.321Z,6.70
2023-01-10T20:11:41.991Z,6.70
2023-01-10T20:14:17.278Z,6.70
2023-01-10T20:16:47.650Z,6.70
2023-01-10T20:19:15.253Z,6.60
2023-01-10T20:21:43.087Z,6.60
2023-01-10T20:24:18.735Z,6.60
2023-01-10T20:26:47.181Z,6.60
2023-01-10T20:29:14.285Z,6.60
2023-01-10T20:31:43.143Z,6.60
2023-01-10T20:34:14.635Z,6.60
2023-01-10T20:36:44.107Z,6.60
2023-01-10T20:39:11.014Z,6.50
2023-01-10T20:41:40.562Z,6.60
2023-01-10T20:44:07.444Z,6.50
2023-01-10T20:46:39.140Z,6.50
2023-01-10T20:49:06.676Z,6.50
2023-01-10T20:51:36.815Z,6.40
2023-01-10T20:54:07.979Z,6.40
2023-01-10T20:56:35.273Z,6.40
2023-01-10T20:59:02.372Z,6.30
2023-01-10T21:01:35.414Z,6.30
2023-01-10T21:04:05.464Z,6.30
2023-01-10T21:06:36.341Z,6.30
2023-01-10T21:09:06.337Z,6.30
2023-01-10T21:11:44.368Z,6.30
2023-01-10T21:14:19.128Z,6.20
2023-01-10T21:16:48.910Z,6.20
2023-01-10T21:19:15.924Z,6.10
2023-01-10T21:21:44.155Z,6.10
2023-01-10T21:24:11.227Z,6.10
2023-01-10T21:26:38.158Z,6.10
2023-01-10T21:29:07.757Z,6.10
2023-01-10T21:31:34.778Z,6.00
2023-01-10T21:34:04.804Z,6.00
2023-01-10T21:36:36.640Z,6.00
2023-01-10T21:39:06.568Z,6.00
2023-01-10T21:41:54.389Z,6.00
2023-01-10T21:44:25.736Z,6.00
2023-01-10T21:46:52.670Z,5.90
2023-01-10T21:49:21.222Z,5.90
2023-01-10T21:51:50.391Z,5.90
2023-01-10T21:54:17.372Z,5.90
2023-01-10T21:56:44.192Z,5.80
2023-01-10T21:59:13.713Z,5.80
2023-01-10T22:01:40.617Z,5.80
2023-01-10T22:04:07.608Z,5.80
2023-01-10T22:06:34.634Z,5.80
2023-01-10T22:09:01.554Z,5.80
2023-01-10T22:11:28.545Z,5.80
2023-01-10T22:13:57.027Z,5.80
2023-01-10T22:16:24.075Z,5.80
2023-01-10T22:18:51.016Z,5.80
2023-01-10T22:21:19.991Z,5.80
2023-01-10T22:23:47.164Z,5.80
2023-01-10T22:26:15.968Z,5.80
2023-01-10T22:28:43.109Z,5.80
2023-01-10T22:31:10.194Z,5.80
2023-01-10T22:33:38.427Z,5.80
2023-01-10T22:36:23.526Z,5.80
2023-01-10T22:38:50.639Z,5.80
2023-01-10T22:41:28.791Z,5.80
2023-01-10T22:43:56.607Z,5.80
2023-01-10T22:46:24.495Z,5.80
2023-01-10T22:48:51.932Z,5.80
2023-01-10T22:51:22.919Z,5.80
2023-01-10T22:53:54.068Z,5.80
2023-01-10T22:56:24.021Z,5.80
2023-01-10T22:58:53.717Z,5.80
2023-01-10T23:01:22.677Z,5.90
2023-01-10T23:03:52.158Z,5.80
2023-01-10T23:06:19.891Z,5.80
2023-01-10T23:08:51.512Z,5.80
2023-01-10T23:11:22.466Z,5.80
2023-01-10T23:13:49.693Z,5.80
2023-01-10T23:16:21.061Z,5.80
2023-01-10T23:18:51.263Z,5.80
2023-01-10T23:21:18.424Z,5.80
2023-01-10T23:23:45.351Z,5.90
2023-01-10T23:26:13.398Z,5.90
2023-01-10T23:28:50.619Z,5.90
2023-01-10T23:31:20.825Z,5.90
2023-01-10T23:33:48.648Z,5.90
2023-01-10T23:36:16.455Z,5.90
2023-01-10T23:38:43.798Z,5.80
2023-01-10T23:41:11.277Z,5.80
2023-01-10T23:43:42.924Z,5.90
2023-01-10T23:46:15.039Z,5.90
2023-01-10T23:48:46.364Z,5.90
2023-01-10T23:51:13.649Z,5.90
2023-01-10T23:53:41.057Z,5.90
2023-01-10T23:56:16.463Z,5.90
2023-01-10T23:58:43.392Z,6.00
